Time;durP1;ratioP1;P1;durP2;ratioP2;P2;SDS_P1;SDS_P2;PMS_P1;PMS_P2;Temp;Humidity;BMP_temperature;BMP_pressure;BME280_temperature;BME280_humidity;BME280_pressure;Samples;Min_cycle;Max_cycle;Signal;HPM_P1;HPM_P2
2022/08/01 00:00:03;;;;;;;4.40;3.70;;;;;;;21.67;69.51;99736.75;4952666;29;20059;-59
2022/08/01 00:02:30;;;;;;;5.13;3.22;;;;;;;21.63;69.70;99730.09;4953117;29;20089;-59
2022/08/01 00:04:58;;;;;;;3.97;3.38;;;;;;;21.60;69.79;99736.56;4935727;29;20078;-60
2022/08/01 00:07:24;;;;;;;3.65;3.30;;;;;;;21.58;69.68;99733.22;4935932;29;20066;-59
2022/08/01 00:09:51;;;;;;;3.90;3.03;;;;;;;21.56;69.91;99732.53;4952568;29;20673;-58
2022/08/01 00:12:18;;;;;;;4.82;3.22;;;;;;;21.55;69.97;99733.53;4935875;29;20081;-59
2022/08/01 00:14:44;;;;;;;3.90;3.40;;;;;;;21.55;70.02;99733.53;4953014;29;20062;-61
2022/08/01 00:17:11;;;;;;;3.70;3.38;;;;;;;21.54;70.00;99734.53;4952940;29;20054;-60
2022/08/01 00:19:38;;;;;;;4.72;3.67;;;;;;;21.54;70.09;99737.22;4952764;29;20047;-61
2022/08/01 00:22:04;;;;;;;5.70;3.38;;;;;;;21.53;70.14;99743.59;4952915;29;20051;-59
2022/08/01 00:24:32;;;;;;;4.18;3.35;;;;;;;21.52;70.05;99740.06;4952744;29;20055;-61
2022/08/01 00:26:58;;;;;;;3.75;3.35;;;;;;;21.53;70.02;99741.72;4935937;29;20059;-59
2022/08/01 00:29:25;;;;;;;5.05;3.40;;;;;;;21.51;70.15;99746.41;4952537;29;20047;-59
2022/08/01 00:32:12;;;;;;;4.47;3.58;;;;;;;21.51;70.14;99749.09;4952671;29;20106;-59
2022/08/01 00:34:38;;;;;;;4.15;3.20;;;;;;;21.50;70.09;99750.09;4952553;29;20262;-59
2022/08/01 00:37:05;;;;;;;4.68;3.50;;;;;;;21.51;70.06;99753.59;4952588;29;20058;-59
2022/08/01 00:39:32;;;;;;;4.63;3.47;;;;;;;21.50;69.84;99757.28;4952825;29;20054;-59
2022/08/01 00:42:05;;;;;;;3.88;3.47;;;;;;;21.48;70.26;99755.63;4952806;29;20429;-60
2022/08/01 00:44:32;;;;;;;4.43;3.35;;;;;;;21.48;70.07;99755.63;4952698;29;20051;-61
2022/08/01 00:46:59;;;;;;;6.28;3.50;;;;;;;21.47;70.12;99751.25;4952564;29;20058;-60
2022/08/01 00:49:26;;;;;;;4.38;3.47;;;;;;;21.46;70.22;99757.59;4952287;29;20047;-59
2022/08/01 00:51:54;;;;;;;8.85;3.20;;;;;;;21.46;70.20;99757.59;4952594;29;20047;-59
2022/08/01 00:54:22;;;;;;;3.67;3.13;;;;;;;21.45;70.22;99763.97;4952574;29;20051;-60
2022/08/01 00:56:48;;;;;;;3.92;3.20;;;;;;;21.46;70.10;99765.63;4935553;29;20051;-61
2022/08/01 00:59:17;;;;;;;4.60;3.22;;;;;;;21.44;70.21;99754.25;4935407;29;20047;-59
2022/08/01 01:01:46;;;;;;;4.53;3.05;;;;;;;21.44;70.22;99759.59;4952489;29;20484;-60
2022/08/01 01:04:16;;;;;;;6.10;3.20;;;;;;;21.43;70.15;99759.75;4952460;29;20047;-59
2022/08/01 01:06:59;;;;;;;4.55;3.13;;;;;;;21.38;70.60;99757.53;4935616;29;20051;-59
2022/08/01 01:09:50;;;;;;;2.97;2.67;;;;;;;21.42;69.92;99758.91;4937683;29;20054;-59
2022/08/01 01:12:42;;;;;;;4.15;3.17;;;;;;;21.35;70.67;99756.03;4955839;28;20070;-64
2022/08/01 01:15:21;;;;;;;3.65;2.88;;;;;;;21.38;70.28;99764.75;4956085;29;20051;-60
2022/08/01 01:17:54;;;;;;;3.25;2.95;;;;;;;21.37;70.27;99758.56;4938973;29;20074;-57
2022/08/01 01:20:26;;;;;;;3.00;2.70;;;;;;;21.37;70.20;99763.91;4938454;29;20063;-62
2022/08/01 01:22:52;;;;;;;3.78;2.95;;;;;;;21.37;70.18;99765.75;4938563;29;20059;-57
2022/08/01 01:25:19;;;;;;;3.63;3.08;;;;;;;21.36;70.20;99759.56;4955906;29;20636;-61
2022/08/01 01:28:08;;;;;;;4.85;3.60;;;;;;;21.33;70.90;99767.91;4955959;29;20062;-59
2022/08/01 01:30:38;;;;;;;3.55;3.22;;;;;;;21.37;70.29;99763.91;4938765;29;20059;-59
2022/08/01 01:33:09;;;;;;;4.03;3.63;;;;;;;21.38;70.37;99767.44;4955284;29;20058;-58
2022/08/01 01:35:41;;;;;;;10.73;4.07;;;;;;;21.38;70.66;99770.13;4938484;29;20787;-59
2022/08/01 01:38:16;;;;;;;6.63;3.72;;;;;;;21.39;70.48;99769.97;4937754;29;20076;-59
2022/08/01 01:40:45;;;;;;;4.55;3.97;;;;;;;21.40;70.37;99766.28;4938167;29;20055;-59
2022/08/01 01:43:13;;;;;;;5.95;4.18;;;;;;;21.41;70.28;99775.16;4955075;29;20110;-62
2022/08/01 01:45:41;;;;;;;4.55;3.90;;;;;;;21.42;70.33;99771.47;4938011;29;20066;-60
2022/08/01 01:48:10;;;;;;;4.95;4.45;;;;;;;21.41;70.45;99770.63;4954677;29;20058;-59
2022/08/01 01:50:39;;;;;;;6.13;4.57;;;;;;;21.40;70.33;99774.31;4938059;29;20051;-63
2022/08/01 01:53:10;;;;;;;4.80;4.35;;;;;;;21.41;70.54;99770.63;4954923;28;20044;-61
2022/08/01 01:55:43;;;;;;;5.40;4.28;;;;;;;21.40;70.43;99771.63;4955020;29;20439;-59
2022/08/01 01:58:18;;;;;;;6.63;3.85;;;;;;;21.42;70.56;99776.84;4938698;29;20508;-59
2022/08/01 02:00:46;;;;;;;5.28;4.18;;;;;;;21.41;70.46;99775.97;4954953;29;20050;-60
2022/08/01 02:03:18;;;;;;;4.80;3.83;;;;;;;21.41;70.52;99778.66;4938506;29;20047;-59
2022/08/01 02:05:46;;;;;;;4.95;4.30;;;;;;;21.42;70.50;99771.47;4937884;29;20062;-60
2022/08/01 02:08:16;;;;;;;5.43;4.30;;;;;;;21.43;70.59;99771.31;4937887;29;20436;-61
2022/08/01 02:13:36;;;;;;;4.13;3.72;;;;;;;21.43;70.56;99765.13;4954743;29;20055;-57
2022/08/01 02:16:04;;;;;;;4.15;3.55;;;;;;;21.43;70.30;99767.78;4954773;28;20496;-61
2022/08/01 02:18:32;;;;;;;4.32;3.90;;;;;;;21.43;70.46;99757.94;4954348;29;20054;-59
2022/08/01 02:21:03;;;;;;;4.82;4.22;;;;;;;21.43;70.49;99757.09;4936746;29;20066;-59
2022/08/01 02:23:36;;;;;;;5.68;4.53;;;;;;;21.42;70.84;99758.09;4937430;29;20055;-61
2022/08/01 02:26:07;;;;;;;;;;;;;;;21.43;70.50;99768.66;4938087;29;20043;-57
2022/08/01 02:29:02;;;;;;;5.93;4.82;;;;;;;21.45;70.55;99758.59;4937612;29;20339;-60
2022/08/01 02:31:32;;;;;;;7.00;5.18;;;;;;;21.50;70.23;99757.28;4937129;29;20051;-63
2022/08/01 02:34:04;;;;;;;5.78;5.18;;;;;;;21.47;70.51;99759.31;4937421;29;20063;-61
2022/08/01 02:36:33;;;;;;;6.55;5.07;;;;;;;21.46;70.39;99767.50;4954525;29;20612;-58
2022/08/01 02:39:08;;;;;;;5.93;5.22;;;;;;;21.44;70.82;99770.31;4954107;28;20062;-59
2022/08/01 02:41:42;;;;;;;6.80;5.97;;;;;;;21.43;70.62;99765.97;4937336;29;20728;-62
2022/08/01 02:44:13;;;;;;;7.53;5.90;;;;;;;21.45;70.45;99765.78;4937285;29;20055;-58
2022/08/01 02:46:48;;;;;;;10.55;5.63;;;;;;;21.44;70.67;99769.47;4937225;29;20058;-58
2022/08/01 02:49:19;;;;;;;6.38;5.78;;;;;;;21.44;70.57;99775.66;4953755;29;20073;-61
2022/08/01 02:51:47;;;;;;;6.07;5.47;;;;;;;21.43;70.43;99767.78;4954110;29;20055;-61
2022/08/01 02:54:17;;;;;;;7.65;5.80;;;;;;;21.43;70.70;99771.31;4953884;29;20054;-57
2022/08/01 02:56:46;;;;;;;7.30;5.32;;;;;;;21.44;70.76;99774.81;4937093;29;20051;-55
2022/08/01 02:59:17;;;;;;;5.45;4.65;;;;;;;21.43;70.75;99771.31;4936700;29;20055;-59
2022/08/01 03:01:49;;;;;;;5.32;4.53;;;;;;;21.45;70.64;99780.03;4937400;29;20054;-58
2022/08/01 03:04:19;;;;;;;5.47;4.88;;;;;;;21.46;70.64;99779.03;4953693;29;20051;-60
2022/08/01 03:06:47;;;;;;;7.60;4.90;;;;;;;21.46;70.47;99776.34;4936714;29;20492;-62
2022/08/01 03:09:14;;;;;;;5.13;4.63;;;;;;;21.47;70.59;99786.06;4936516;29;20058;-60
2022/08/01 03:11:44;;;;;;;7.53;5.20;;;;;;;21.48;70.35;99782.38;4936763;29;20047;-60
2022/08/01 03:14:12;;;;;;;7.22;5.68;;;;;;;21.47;70.30;99780.72;4936514;29;20492;-59
2022/08/01 03:16:43;;;;;;;7.18;5.63;;;;;;;21.46;70.31;99786.22;4936658;29;20047;-59
2022/08/01 03:19:12;;;;;;;6.65;5.20;;;;;;;21.45;70.08;99788.06;4936030;29;20530;-59
2022/08/01 03:21:40;;;;;;;6.32;5.20;;;;;;;21.45;70.23;99781.84;4936447;29;20051;-60
2022/08/01 03:24:09;;;;;;;5.55;5.05;;;;;;;21.44;70.37;99782.84;4936283;29;20062;-59
2022/08/01 03:26:38;;;;;;;5.47;4.95;;;;;;;21.43;70.27;99795.41;4936519;29;20051;-60
2022/08/01 03:29:09;;;;;;;7.38;5.43;;;;;;;21.43;70.32;99786.53;4953170;29;20062;-59
2022/08/01 03:31:38;;;;;;;6.32;5.70;;;;;;;21.42;70.32;99791.03;4936358;29;20141;-61
2022/08/01 03:34:06;;;;;;;6.25;5.30;;;;;;;21.41;70.34;99791.22;4936084;29;20411;-60
2022/08/01 03:36:36;;;;;;;7.15;5.97;;;;;;;21.41;70.45;99801.94;4936403;29;20062;-60
2022/08/01 03:39:05;;;;;;;6.50;5.80;;;;;;;21.40;70.43;99795.72;4953085;29;20054;-59
2022/08/01 03:41:40;;;;;;;7.53;6.45;;;;;;;21.37;70.57;99793.34;4936175;29;20061;-58
2022/08/01 03:44:20;;;;;;;7.35;6.63;;;;;;;21.35;70.41;99788.16;4953143;29;20054;-61
2022/08/01 03:46:49;;;;;;;7.28;6.55;;;;;;;21.37;70.13;99782.66;4936044;29;20496;-59
2022/08/01 03:49:31;;;;;;;7.50;6.80;;;;;;;21.34;70.47;99793.66;4935877;29;20051;-62
2022/08/01 03:52:02;;;;;;;8.32;6.95;;;;;;;21.35;70.28;99793.50;4936296;29;20109;-61
2022/08/01 03:54:33;;;;;;;7.57;6.88;;;;;;;21.36;70.13;99799.72;4936183;29;20480;-60
2022/08/01 03:57:01;;;;;;;7.03;6.43;;;;;;;21.35;70.25;99798.03;4935882;29;20515;-60
2022/08/01 03:59:29;;;;;;;8.45;7.53;;;;;;;21.35;70.29;99798.03;4935848;29;20058;-58
2022/08/01 04:01:57;;;;;;;8.82;7.13;;;;;;;21.35;70.48;99798.03;4953148;29;20066;-59
2022/08/01 04:04:24;;;;;;;8.20;7.45;;;;;;;21.35;70.26;99798.03;4935904;29;20051;-60
2022/08/01 04:06:53;;;;;;;8.52;7.50;;;;;;;21.36;70.38;99807.75;4953053;29;20063;-60
2022/08/01 04:09:21;;;;;;;7.35;6.65;;;;;;;21.36;70.61;99797.03;4952611;29;20558;-59
2022/08/01 04:11:48;;;;;;;7.50;6.82;;;;;;;21.37;70.33;99798.72;4936028;29;20051;-58
2022/08/01 04:14:15;;;;;;;8.93;7.43;;;;;;;21.39;70.27;99804.75;4935960;29;20070;-59
2022/08/01 04:16:41;;;;;;;7.25;6.55;;;;;;;21.40;70.23;99808.25;4952916;28;20059;-57
2022/08/01 04:19:08;;;;;;;7.20;6.53;;;;;;;21.41;70.24;99801.94;4952503;29;20051;-59
2022/08/01 04:21:35;;;;;;;6.75;6.15;;;;;;;21.41;70.15;99801.94;4952812;29;20071;-60
2022/08/01 04:24:12;;;;;;;6.80;6.10;;;;;;;21.40;70.40;99805.59;4935594;29;20514;-59
2022/08/01 04:26:42;;;;;;;6.82;6.13;;;;;;;21.41;70.02;99808.13;4953064;28;20420;-60
2022/08/01 04:29:10;;;;;;;6.18;5.43;;;;;;;21.44;70.13;99815.84;4935498;29;20097;-61
2022/08/01 04:31:41;;;;;;;8.70;6.15;;;;;;;21.42;70.24;99815.13;4935621;29;20091;-60
2022/08/01 04:34:09;;;;;;;7.07;6.03;;;;;;;21.43;69.98;99819.53;4935826;29;20469;-60
2022/08/01 04:36:38;;;;;;;6.13;5.60;;;;;;;21.44;69.94;99825.69;4935557;29;20055;-60
2022/08/01 04:39:05;;;;;;;5.82;5.32;;;;;;;21.43;70.04;99819.53;4935299;29;20066;-59
2022/08/01 04:41:33;;;;;;;7.78;5.80;;;;;;;21.43;69.91;99818.66;4935678;29;20063;-60
2022/08/01 04:44:00;;;;;;;6.40;5.80;;;;;;;21.43;69.89;99832.06;4937318;29;20432;-60
2022/08/01 04:46:29;;;;;;;5.90;5.28;;;;;;;21.41;69.88;99831.38;4956117;29;20423;-60
2022/08/01 04:48:56;;;;;;;6.75;4.93;;;;;;;21.39;69.90;99836.91;4956018;29;20051;-60
2022/08/01 04:51:23;;;;;;;7.97;5.63;;;;;;;21.40;70.01;99845.75;4956381;29;20055;-60
2022/08/01 04:53:53;;;;;;;5.75;5.05;;;;;;;21.39;70.05;99839.56;4956383;29;20043;-61
2022/08/01 04:56:20;;;;;;;4.95;4.45;;;;;;;21.41;70.13;99836.75;4938910;29;20048;-59
2022/08/01 04:59:39;;;;;;;5.80;4.43;;;;;;;21.41;70.31;99840.25;4956086;29;20047;-61
2022/08/01 05:01:48;;;;;;;5.43;3.78;;;;;;;21.44;70.10;99845.28;4956027;29;20062;-59
2022/08/01 05:04:15;;;;;;;4.85;4.25;;;;;;;21.47;70.06;99845.00;4938847;29;20089;-58
2022/08/01 05:06:42;;;;;;;5.75;4.55;;;;;;;21.48;69.99;99844.00;4939025;29;20063;-61
2022/08/01 05:09:09;;;;;;;6.60;5.03;;;;;;;21.51;69.93;99850.00;4955689;29;20051;-59
2022/08/01 05:11:35;;;;;;;6.30;4.95;;;;;;;21.51;69.95;99842.81;4955650;29;20058;-59
2022/08/01 05:14:02;;;;;;;5.00;4.50;;;;;;;21.52;69.82;99854.41;4955555;29;20055;-60
2022/08/01 05:16:29;;;;;;;6.00;4.90;;;;;;;21.52;69.89;99851.72;4938334;29;20051;-61
2022/08/01 05:18:55;;;;;;;4.97;4.57;;;;;;;21.52;69.89;99852.53;4955690;29;20058;-65
2022/08/01 05:21:22;;;;;;;5.53;4.15;;;;;;;21.53;69.96;99861.41;4955793;29;20051;-60
2022/08/01 05:23:48;;;;;;;9.05;4.43;;;;;;;21.53;69.59;99854.22;4955529;29;20043;-61
2022/08/01 05:26:15;;;;;;;10.07;4.63;;;;;;;21.56;69.89;99853.06;4955357;29;20051;-58
2022/08/01 05:28:42;;;;;;;6.57;4.70;;;;;;;21.56;69.79;99861.09;4938402;29;20055;-60
2022/08/01 05:31:08;;;;;;;6.47;4.65;;;;;;;21.57;69.63;99857.44;4938677;29;20058;-60
2022/08/01 05:33:35;;;;;;;4.95;4.32;;;;;;;21.58;69.77;99861.78;4955202;29;20058;-58
2022/08/01 05:36:02;;;;;;;6.57;4.80;;;;;;;21.59;69.82;99864.31;4955288;29;20055;-59
2022/08/01 05:38:29;;;;;;;6.05;4.80;;;;;;;21.61;69.86;99864.16;4955406;28;20081;-59
2022/08/01 05:40:55;;;;;;;5.20;4.63;;;;;;;21.62;69.58;99865.84;4955459;29;20113;-58
2022/08/01 05:43:22;;;;;;;5.40;4.38;;;;;;;21.65;69.96;99868.22;4955570;29;20051;-61
2022/08/01 05:45:54;;;;;;;5.82;4.32;;;;;;;21.67;69.66;99876.06;4955421;29;20054;-59
2022/08/01 05:48:21;;;;;;;5.78;4.65;;;;;;;21.69;69.43;99874.09;4955452;29;20062;-61
2022/08/01 05:50:47;;;;;;;5.18;4.03;;;;;;;21.69;69.65;99864.22;4955297;29;20102;-59
2022/08/01 05:53:14;;;;;;;5.75;4.43;;;;;;;21.71;69.89;99862.19;4955320;29;20055;-59
2022/08/01 05:55:41;;;;;;;4.45;4.05;;;;;;;21.76;69.87;99877.84;4954184;28;20050;-56
2022/08/01 05:58:07;;;;;;;6.10;4.10;;;;;;;21.78;70.02;99883.03;4955461;29;20051;-59
2022/08/01 06:00:38;;;;;;;5.13;3.92;;;;;;;21.81;69.49;99880.88;4955221;29;20125;-59
2022/08/01 06:03:04;;;;;;;5.38;3.83;;;;;;;21.83;69.57;99886.91;4954598;29;20060;-59
2022/08/01 06:05:31;;;;;;;4.53;3.90;;;;;;;21.87;69.29;99876.75;4954627;29;20095;-60
2022/08/01 06:07:58;;;;;;;4.40;3.55;;;;;;;21.89;69.63;99879.25;4937912;29;20051;-59
2022/08/01 06:10:24;;;;;;;4.45;3.60;;;;;;;21.91;69.43;99883.47;4954651;29;20416;-59
2022/08/01 06:12:51;;;;;;;4.88;3.80;;;;;;;21.94;69.52;99883.13;4937682;29;20452;-58
2022/08/01 06:15:18;;;;;;;3.67;3.35;;;;;;;21.97;69.58;99879.28;4937996;29;20067;-59
2022/08/01 06:17:44;;;;;;;5.22;3.60;;;;;;;22.00;69.22;99887.88;4954325;29;20122;-59
2022/08/01 06:20:11;;;;;;;4.90;3.70;;;;;;;22.03;69.47;99888.53;4954305;29;20184;-59
2022/08/01 06:22:38;;;;;;;4.70;3.45;;;;;;;22.07;69.38;99897.94;4954897;29;20082;-60
2022/08/01 06:25:07;;;;;;;3.72;3.00;;;;;;;22.10;69.07;99892.28;4954990;29;20135;-61
2022/08/01 06:27:36;;;;;;;3.33;2.97;;;;;;;22.11;68.98;99899.31;4937634;29;20055;-57
2022/08/01 06:30:04;;;;;;;9.43;3.72;;;;;;;22.15;69.08;99900.66;4954534;29;20055;-60
2022/08/01 06:32:31;;;;;;;6.40;3.78;;;;;;;22.17;68.96;99903.19;4954268;29;20058;-57
2022/08/01 06:34:58;;;;;;;4.85;3.13;;;;;;;22.19;68.83;99901.19;4937281;29;20054;-62
2022/08/01 06:37:28;;;;;;;4.90;3.22;;;;;;;22.18;68.77;99907.53;4954145;29;20055;-60
2022/08/01 06:39:55;;;;;;;3.22;2.92;;;;;;;22.20;68.69;99908.25;4954472;29;20055;-58
2022/08/01 06:42:23;;;;;;;4.82;2.95;;;;;;;22.21;68.79;99900.00;4954375;29;20065;-61
2022/08/01 06:44:50;;;;;;;4.85;2.70;;;;;;;22.23;68.60;99906.06;4937352;29;20058;-59
2022/08/01 06:47:16;;;;;;;4.18;2.88;;;;;;;22.22;68.48;99907.09;4954174;29;20047;-59
2022/08/01 06:49:43;;;;;;;3.30;2.70;;;;;;;22.23;68.54;99898.03;4953830;29;20090;-59
2022/08/01 06:52:09;;;;;;;3.15;2.70;;;;;;;22.24;68.59;99906.91;4937104;29;20055;-60
2022/08/01 06:54:36;;;;;;;3.33;2.85;;;;;;;22.23;68.05;99911.44;4954663;29;20067;-62
2022/08/01 06:57:06;;;;;;;2.50;1.80;;;;;;;22.20;67.41;99910.91;4954324;29;20051;-60
2022/08/01 06:59:33;;;;;;;3.45;1.88;;;;;;;22.19;67.56;99912.75;4953885;29;20055;-60
2022/08/01 07:02:01;;;;;;;3.42;2.05;;;;;;;22.17;67.52;99922.81;4954190;29;20069;-60
2022/08/01 07:04:28;;;;;;;3.35;1.80;;;;;;;22.15;67.56;99922.13;4936321;29;20051;-60
2022/08/01 07:06:54;;;;;;;5.13;1.80;;;;;;;22.12;67.35;99923.28;4953075;28;20055;-61
2022/08/01 07:09:21;;;;;;;5.88;2.50;;;;;;;22.10;67.09;99919.91;4953389;29;20051;-60
2022/08/01 07:11:48;;;;;;;3.10;2.80;;;;;;;22.07;67.34;99914.88;4953225;29;20059;-60
2022/08/01 07:14:14;;;;;;;4.18;2.90;;;;;;;22.04;67.02;99920.53;4953593;29;20138;-62
2022/08/01 07:16:41;;;;;;;3.05;2.42;;;;;;;22.02;67.32;99916.34;4953561;29;20059;-60
2022/08/01 07:19:08;;;;;;;5.32;1.70;;;;;;;21.99;67.30;99917.50;4953195;29;20063;-59
2022/08/01 07:21:34;;;;;;;5.93;1.70;;;;;;;21.97;67.44;99914.97;4953313;29;20452;-60
2022/08/01 07:24:08;;;;;;;3.92;1.50;;;;;;;21.95;67.41;99911.63;4953218;29;20055;-60
2022/08/01 07:26:43;;;;;;;2.97;1.52;;;;;;;21.95;67.66;99911.63;4936881;29;20090;-59
2022/08/01 07:29:24;;;;;;;2.80;1.40;;;;;;;21.95;67.51;99919.69;4953295;29;20051;-60
2022/08/01 07:31:55;;;;;;;2.25;1.40;;;;;;;21.97;67.92;99922.16;4936636;29;20055;-59
2022/08/01 07:34:23;;;;;;;1.48;1.23;;;;;;;22.00;68.24;99925.41;4936224;29;20055;-59
2022/08/01 07:36:51;;;;;;;2.47;1.52;;;;;;;22.03;68.34;99931.41;4936422;29;20054;-60
2022/08/01 07:39:17;;;;;;;2.03;1.35;;;;;;;22.08;68.33;99931.78;4951872;29;20062;-61
2022/08/01 07:41:44;;;;;;;2.08;1.30;;;;;;;22.12;68.09;99939.34;4953067;29;20500;-59
2022/08/01 07:44:31;;;;;;;3.72;1.15;;;;;;;22.18;67.91;99935.22;4953769;28;20062;-59
2022/08/01 07:46:57;;;;;;;1.45;1.08;;;;;;;22.21;67.85;99942.91;4953559;29;20058;-61
2022/08/01 07:49:24;;;;;;;2.13;1.25;;;;;;;22.24;67.48;99947.97;4953277;29;20062;-59
2022/08/01 07:51:51;;;;;;;2.60;1.42;;;;;;;22.28;67.41;99936.94;4953557;29;20055;-59
2022/08/01 07:54:38;;;;;;;3.92;1.55;;;;;;;22.31;67.47;99942.81;4953353;28;20055;-61
2022/08/01 07:57:04;;;;;;;2.45;1.20;;;;;;;22.33;66.94;99948.00;4935933;29;20054;-59
2022/08/01 07:59:31;;;;;;;2.35;1.40;;;;;;;22.35;67.11;99954.06;4936046;29;20054;-59
2022/08/01 08:01:58;;;;;;;2.22;1.10;;;;;;;22.38;66.62;99957.25;4953041;28;20539;-59
2022/08/01 08:04:26;;;;;;;2.03;1.17;;;;;;;22.41;66.57;99961.47;4952725;29;20061;-59
2022/08/01 08:06:53;;;;;;;2.50;1.58;;;;;;;22.48;66.37;99961.66;4935795;29;20054;-59
2022/08/01 08:09:20;;;;;;;2.97;1.30;;;;;;;22.51;66.73;99961.34;4952831;29;20504;-61
2022/08/01 08:11:47;;;;;;;3.55;1.30;;;;;;;22.56;66.48;99960.88;4952756;29;20061;-60
2022/08/01 08:14:16;;;;;;;3.05;1.20;;;;;;;22.58;66.19;99964.25;4935883;29;20051;-61
2022/08/01 08:16:44;;;;;;;3.13;1.45;;;;;;;22.63;66.16;99967.28;4936296;29;20052;-61
2022/08/01 08:19:11;;;;;;;4.55;1.23;;;;;;;22.67;66.21;99973.16;4954737;28;20059;-60
2022/08/01 08:21:38;;;;;;;2.88;1.40;;;;;;;22.71;66.63;99967.31;4956340;29;20143;-59
2022/08/01 08:24:22;;;;;;;2.17;1.30;;;;;;;22.78;66.59;99973.72;4956703;29;20089;-60
2022/08/01 08:27:00;;;;;;;2.25;1.35;;;;;;;22.86;65.53;99972.06;4956748;29;20496;-63
2022/08/01 08:29:29;;;;;;;2.58;1.25;;;;;;;22.95;66.06;99970.25;4939455;29;20625;-60
2022/08/01 08:31:57;;;;;;;2.47;1.17;;;;;;;23.02;65.90;99979.31;4939562;29;20141;-60
2022/08/01 08:34:25;;;;;;;2.15;1.17;;;;;;;23.11;65.78;99977.50;4956770;29;20051;-61
2022/08/01 08:36:53;;;;;;;2.60;1.20;;;;;;;23.17;65.19;99985.75;4939564;29;20062;-59
2022/08/01 08:39:20;;;;;;;2.00;1.48;;;;;;;23.23;64.81;99975.34;4956556;28;20055;-61
2022/08/01 08:41:47;;;;;;;2.15;1.42;;;;;;;23.26;64.64;99977.69;4955898;29;20051;-62
2022/08/01 08:44:17;;;;;;;2.50;1.38;;;;;;;23.29;64.45;99985.44;4938750;29;20054;-60
2022/08/01 08:46:46;;;;;;;1.33;1.17;;;;;;;23.32;64.38;99986.94;4939459;29;20052;-59
2022/08/01 08:49:18;;;;;;;2.97;1.25;;;;;;;23.35;64.17;99990.16;4939250;29;20067;-60
2022/08/01 08:51:49;;;;;;;2.22;1.45;;;;;;;23.39;64.00;99980.75;4956463;29;20130;-60
2022/08/01 08:54:20;;;;;;;2.22;1.50;;;;;;;23.43;63.55;99992.84;4956455;29;20047;-60
2022/08/01 08:56:48;;;;;;;4.00;1.08;;;;;;;23.43;63.39;99994.69;4956157;29;20051;-60
2022/08/01 08:59:15;;;;;;;1.85;1.17;;;;;;;23.40;63.22;99989.69;4956037;29;20499;-62
2022/08/01 09:01:42;;;;;;;2.67;1.40;;;;;;;23.36;62.90;99989.16;4956429;28;20055;-60
2022/08/01 09:04:10;;;;;;;2.17;1.35;;;;;;;23.33;63.21;100002.03;4939221;29;20500;-61
2022/08/01 09:06:38;;;;;;;2.65;1.50;;;;;;;23.30;63.22;99998.66;4956012;29;20062;-62
2022/08/01 09:09:06;;;;;;;4.07;1.73;;;;;;;23.32;64.19;99998.50;4938812;29;20054;-62
2022/08/01 09:11:34;;;;;;;2.45;1.70;;;;;;;23.38;65.15;99997.91;4955832;29;20503;-59
2022/08/01 09:14:11;;;;;;;5.53;1.70;;;;;;;23.46;64.56;100002.44;4956087;28;20051;-59
2022/08/01 09:16:43;;;;;;;2.90;1.30;;;;;;;23.64;64.84;100007.66;4956078;29;20656;-59
2022/08/01 09:19:15;;;;;;;;;;;;;;;23.74;64.95;100002.09;4939950;29;20488;-59
2022/08/01 09:22:05;;;;;;;2.03;1.38;;;;;;;23.93;62.44;100016.22;4941700;29;19922;-61
2022/08/01 09:24:32;;;;;;;2.92;1.35;;;;;;;23.98;62.13;100019.25;4938646;29;20566;-61
2022/08/01 09:27:00;;;;;;;2.42;1.60;;;;;;;24.00;62.31;100022.59;4938763;29;20047;-59
2022/08/01 09:29:31;;;;;;;3.20;1.48;;;;;;;24.03;62.09;100027.63;4938587;29;20059;-60
2022/08/01 09:32:05;;;;;;;5.03;1.50;;;;;;;24.07;61.64;100026.28;4939432;29;20062;-60
2022/08/01 09:34:33;;;;;;;5.05;1.30;;;;;;;24.12;61.92;100028.50;4938518;29;20547;-59
2022/08/01 09:37:02;;;;;;;7.10;1.90;;;;;;;24.16;62.09;100023.63;4955353;29;20086;-59
2022/08/01 09:39:37;;;;;;;2.47;1.75;;;;;;;24.22;61.76;100031.00;4938163;29;20416;-59
2022/08/01 09:42:21;;;;;;;2.63;1.65;;;;;;;24.29;62.07;100034.69;4938430;29;20071;-59
2022/08/01 09:44:55;;;;;;;3.25;1.90;;;;;;;24.45;61.94;100030.28;4939225;29;20507;-60
2022/08/01 09:47:22;;;;;;;2.42;1.88;;;;;;;24.51;61.13;100036.84;4955474;29;20059;-59
2022/08/01 09:49:56;;;;;;;2.67;1.70;;;;;;;24.53;60.06;100040.19;4955025;29;20102;-60
2022/08/01 09:52:26;;;;;;;2.25;1.77;;;;;;;24.56;59.96;100043.38;4938885;29;20407;-61
2022/08/01 09:55:02;;;;;;;4.13;1.92;;;;;;;24.55;59.61;100049.75;4938289;29;20106;-61
2022/08/01 09:57:29;;;;;;;4.20;1.98;;;;;;;24.55;60.16;100052.47;4938046;29;20555;-59
2022/08/01 09:59:58;;;;;;;3.35;1.52;;;;;;;24.57;60.34;100045.06;4955079;29;20532;-59
2022/08/01 10:02:27;;;;;;;2.33;2.08;;;;;;;24.60;60.02;100041.19;4938318;29;20138;-61
2022/08/01 10:04:55;;;;;;;3.05;1.73;;;;;;;24.66;60.24;100034.25;4955115;29;20075;-61
2022/08/01 10:07:29;;;;;;;3.67;2.03;;;;;;;24.71;60.19;100034.59;4955091;29;20138;-61
2022/08/01 10:10:14;;;;;;;3.40;1.63;;;;;;;24.79;59.82;100042.63;4955026;29;20051;-59
2022/08/01 10:12:42;;;;;;;3.55;1.60;;;;;;;24.91;60.38;100036.88;4954964;29;20043;-59
2022/08/01 10:15:16;;;;;;;3.35;1.25;;;;;;;25.01;59.46;100034.84;4954719;29;20157;-62
2022/08/01 10:17:54;;;;;;;1.55;1.30;;;;;;;25.13;58.89;100037.13;4937924;29;20051;-59
2022/08/01 10:20:31;;;;;;;2.70;1.45;;;;;;;25.26;57.91;100041.94;4954532;29;20114;-60
2022/08/01 10:23:00;;;;;;;2.33;1.20;;;;;;;25.39;58.09;100047.59;4954667;29;20122;-59
2022/08/01 10:25:40;;;;;;;2.10;1.20;;;;;;;25.48;56.84;100045.66;4954888;29;20055;-61
2022/08/01 10:28:18;;;;;;;3.63;1.50;;;;;;;25.55;56.31;100046.63;4938379;29;20051;-59
2022/08/01 10:30:47;;;;;;;2.33;1.13;;;;;;;25.65;57.21;100048.28;4937561;29;20062;-64
2022/08/01 10:33:16;;;;;;;2.60;1.20;;;;;;;25.69;56.53;100052.28;4937853;29;20062;-60
2022/08/01 10:36:03;;;;;;;3.95;1.20;;;;;;;25.74;56.55;100050.75;4954904;29;20106;-59
2022/08/01 10:38:35;;;;;;;2.22;1.30;;;;;;;25.77;56.49;100060.31;4954064;29;20044;-59
2022/08/01 10:41:04;;;;;;;2.88;1.20;;;;;;;25.78;55.83;100051.22;5054129;23;20047;-63
2022/08/01 10:43:34;;;;;;;1.38;1.23;;;;;;;25.81;56.60;100050.84;4973363;28;20055;-64
2022/08/01 10:46:05;;;;;;;3.90;1.50;;;;;;;25.82;56.12;100051.69;4973953;28;20051;-65
2022/08/01 10:48:55;;;;;;;1.92;1.30;;;;;;;25.86;56.06;100058.38;4973425;28;20122;-64
2022/08/01 10:51:23;;;;;;;1.98;1.15;;;;;;;25.93;55.82;100062.03;4973358;28;20047;-65
2022/08/01 10:54:11;;;;;;;3.63;1.27;;;;;;;26.01;55.64;100053.88;4959053;28;20038;-65
2022/08/01 10:56:49;;;;;;;3.38;0.98;;;;;;;26.04;53.69;100055.38;4956233;28;20094;-64
2022/08/01 10:59:22;;;;;;;2.88;1.30;;;;;;;26.11;52.28;100044.69;4956323;28;20495;-64
2022/08/01 11:02:08;;;;;;;1.77;1.20;;;;;;;26.19;54.05;100059.97;4958947;28;20054;-63
2022/08/01 11:04:54;;;;;;;2.35;1.20;;;;;;;26.15;52.98;100057.66;4973680;28;20047;-64
2022/08/01 11:07:23;;;;;;;3.22;1.25;;;;;;;26.23;53.56;100063.97;4973486;28;20407;-64
2022/08/01 11:10:16;;;;;;;3.15;1.20;;;;;;;26.20;53.55;100062.47;4973103;28;20101;-64
2022/08/01 11:12:43;;;;;;;2.60;1.20;;;;;;;26.31;52.86;100061.22;4955976;28;20046;-64
2022/08/01 11:15:09;;;;;;;5.72;1.10;;;;;;;26.36;52.97;100061.53;4973392;28;20054;-64
2022/08/01 11:17:51;;;;;;;4.30;1.20;;;;;;;26.46;52.75;100058.53;4973316;28;20495;-65
2022/08/01 11:20:30;;;;;;;3.35;1.40;;;;;;;26.60;53.38;100067.69;4972858;28;20054;-68
2022/08/01 11:23:06;;;;;;;5.43;1.60;;;;;;;26.76;51.76;100060.44;4955893;28;20055;-68
2022/08/01 11:25:35;;;;;;;3.20;1.30;;;;;;;26.91;51.09;100057.72;4973055;28;20051;-63
2022/08/01 11:28:25;;;;;;;5.20;1.80;;;;;;;27.07;51.57;100062.09;4972572;28;20053;-63
2022/08/01 11:31:06;;;;;;;5.20;1.52;;;;;;;27.17;49.63;100062.63;4956994;28;20055;-65
2022/08/01 11:33:44;;;;;;;4.63;1.40;;;;;;;27.27;49.85;100070.44;4973178;28;20050;-64
2022/08/01 11:36:12;;;;;;;6.57;1.50;;;;;;;27.34;50.34;100064.25;4972984;28;20078;-63
2022/08/01 11:39:05;;;;;;;5.40;2.10;;;;;;;27.35;49.66;100072.19;4972868;28;20069;-65
2022/08/01 11:41:40;;;;;;;5.22;1.63;;;;;;;27.36;49.33;100062.22;4963591;28;20054;-64
2022/08/01 11:44:13;;;;;;;9.45;1.80;;;;;;;27.29;48.44;100062.13;4972840;28;20065;-65
2022/08/01 11:46:47;;;;;;;;;;;;;;;27.21;51.05;100073.06;4973339;28;20047;-63
2022/08/01 11:49:32;;;;;;;5.90;1.80;;;;;;;27.15;48.86;100067.41;4972479;28;20029;-65